LiveATC.Net - Listen to live air traffic control over the Internet!


ICAO: ESSP  IATA: NRK   Airport: Kungsangen Airport
City: Norrkoping
Country: Sweden   Continent: Europe
ESSP METAR Weather: ESSP 281920Z AUTO 09005KT 9999 FEW035/// SCT043/// OVC088/// 02/02 Q1026
ESSP ADS-B Flight Tracking (ADSBExchange)
ESSP Flight Activity (FlightAware)

ESSP Twr/App/Control
Feed Status: UP   Listeners: 0
Listen in your browser - HTML5 player (in browser, HTML5)
Click here to listen with your own player (launches your MP3 player)
Archive Access: ESSP Twr/App/Control
FacilityFrequency
Kungsangen Tower120.355
Osgota Approach/Departure132.955
Sweden Control118.280
Sweden Control118.405
Sweden Control134.455

NOTICE

Unauthorized use prohibited. See LiveATC.net Terms of Service


Airport/ARTCC Code
Frequency Search
(e.g., 124.400, 128.75)
Site-wide search
 


Browse Feeds
Top 50 Feeds
HF Oceanic Feeds
Coverage Map
Bad Weather Areas

LiveATC FAQ
Offer LiveATC feed
Contact LiveATC.net
Press Inquiries

LiveATC on iPhone
LiveATC on Android

LiveATC Mobile
(Mobile browser)

ATC Audio Archives
Interesting Recordings

LiveATC Forums


Home Page
About LiveATC.net


Terms of Use
Privacy Policy

AIRMETs/SIGMETs

FAA Airport Status
NAS Status
Arrival Demand


Server Software By:
Icecast.org
Liquidsoap